createdAt,value
2022-11-23T00:00:08.487Z,1.60
2022-11-23T00:02:35.105Z,1.48
2022-11-23T00:05:01.702Z,1.40
2022-11-23T00:07:28.120Z,1.50
2022-11-23T00:09:54.581Z,1.40
2022-11-23T00:12:21.174Z,1.30
2022-11-23T00:14:47.620Z,1.40
2022-11-23T00:17:14.073Z,1.40
2022-11-23T00:19:40.527Z,1.30
2022-11-23T00:22:06.945Z,1.42
2022-11-23T00:24:33.435Z,1.33
2022-11-23T00:26:59.964Z,1.20
2022-11-23T00:29:27.362Z,1.50
2022-11-23T00:31:53.781Z,1.30
2022-11-23T00:34:20.208Z,1.30
2022-11-23T00:36:46.661Z,1.33
2022-11-23T00:39:13.077Z,1.48
2022-11-23T00:41:39.624Z,1.30
2022-11-23T00:44:06.088Z,1.15
2022-11-23T00:46:32.620Z,1.80
2022-11-23T00:48:59.113Z,1.20
2022-11-23T00:51:28.578Z,1.30
2022-11-23T00:53:55.229Z,1.30
2022-11-23T00:56:21.821Z,1.20
2022-11-23T00:58:52.398Z,1.20
2022-11-23T01:01:21.742Z,1.20
2022-11-23T01:03:51.189Z,1.10
2022-11-23T01:06:23.924Z,1.50
2022-11-23T01:08:56.969Z,1.30
2022-11-23T01:11:25.414Z,1.40
2022-11-23T01:13:52.069Z,1.08
2022-11-23T01:16:24.633Z,1.65
2022-11-23T01:19:12.499Z,1.73
2022-11-23T01:21:39.517Z,1.38
2022-11-23T01:24:12.929Z,1.60
2022-11-23T01:26:40.451Z,1.77
2022-11-23T01:29:06.956Z,1.80
2022-11-23T01:31:33.641Z,1.30
2022-11-23T01:34:02.050Z,1.40
2022-11-23T01:36:30.841Z,1.55
2022-11-23T01:38:58.037Z,1.50
2022-11-23T01:41:30.592Z,1.23
2022-11-23T01:46:23.448Z,1.80
2022-11-23T01:48:58.257Z,1.33
2022-11-23T01:51:29.180Z,1.77
2022-11-23T01:53:58.159Z,1.70
2022-11-23T01:56:28.822Z,1.67
2022-11-23T01:58:57.585Z,1.65
2022-11-23T02:01:24.186Z,2.13
2022-11-23T02:03:51.231Z,1.88
2022-11-23T02:06:19.346Z,1.55
2022-11-23T02:08:47.303Z,1.60
2022-11-23T02:11:14.492Z,1.88
2022-11-23T02:13:42.806Z,1.45
2022-11-23T02:16:09.309Z,1.95
2022-11-23T02:18:37.219Z,1.80
2022-11-23T02:21:04.244Z,1.73
2022-11-23T02:23:34.852Z,1.65
2022-11-23T02:26:08.415Z,1.75
2022-11-23T02:28:42.215Z,1.83
2022-11-23T02:31:08.968Z,1.67
2022-11-23T02:33:38.479Z,1.40
2022-11-23T02:36:39.970Z,2.05
2022-11-23T02:39:09.372Z,1.70
2022-11-23T02:41:38.103Z,1.50
2022-11-23T02:44:06.027Z,1.77
2022-11-23T02:46:32.494Z,1.52
2022-11-23T02:48:58.876Z,1.23
2022-11-23T02:51:25.284Z,1.30
2022-11-23T02:53:51.664Z,1.42
2022-11-23T02:56:18.039Z,1.52
2022-11-23T02:58:44.447Z,1.67
2022-11-23T03:01:10.876Z,1.67
2022-11-23T03:03:37.336Z,1.70
2022-11-23T03:06:03.752Z,1.35
2022-11-23T03:08:30.121Z,1.52
2022-11-23T03:10:56.517Z,1.33
2022-11-23T03:13:22.907Z,1.48
2022-11-23T03:15:49.353Z,1.40
2022-11-23T03:18:15.812Z,1.25
2022-11-23T03:20:42.209Z,1.73
2022-11-23T03:23:08.603Z,1.48
2022-11-23T03:25:35.003Z,1.70
2022-11-23T03:28:01.382Z,1.52
2022-11-23T03:30:27.744Z,1.38
2022-11-23T03:32:54.133Z,1.52
2022-11-23T03:35:20.511Z,1.60
2022-11-23T03:37:46.885Z,1.63
2022-11-23T03:40:13.486Z,1.63
2022-11-23T03:42:40.691Z,1.90
2022-11-23T03:45:08.559Z,1.55
2022-11-23T03:47:34.998Z,1.90
2022-11-23T03:50:01.411Z,1.35
2022-11-23T03:52:27.799Z,1.83
2022-11-23T03:54:54.182Z,1.65
2022-11-23T03:57:20.541Z,1.70
2022-11-23T03:59:46.936Z,1.52
2022-11-23T04:02:13.541Z,1.60
2022-11-23T04:04:39.946Z,1.90
2022-11-23T04:07:06.421Z,1.80
2022-11-23T04:09:33.232Z,1.55
2022-11-23T04:11:59.731Z,1.80
2022-11-23T04:14:26.117Z,1.67
2022-11-23T04:16:52.529Z,1.63
2022-11-23T04:19:18.937Z,1.73
2022-11-23T04:21:45.310Z,1.88
2022-11-23T04:24:11.837Z,2.08
2022-11-23T04:26:38.372Z,1.67
2022-11-23T04:29:04.812Z,1.77
2022-11-23T04:31:31.277Z,1.45
2022-11-23T04:33:57.703Z,1.90
2022-11-23T04:36:24.334Z,1.60
2022-11-23T04:38:50.881Z,1.63
2022-11-23T04:41:17.376Z,1.67
2022-11-23T04:43:43.768Z,1.85
2022-11-23T04:46:11.521Z,1.90
2022-11-23T04:48:37.897Z,2.00
2022-11-23T04:51:04.400Z,2.00
2022-11-23T04:53:30.894Z,1.92
2022-11-23T04:55:57.386Z,1.70
2022-11-23T04:58:23.787Z,1.75
2022-11-23T05:00:50.299Z,1.70
2022-11-23T05:03:16.786Z,1.75
2022-11-23T05:05:43.168Z,1.95
2022-11-23T05:08:09.897Z,2.25
2022-11-23T05:10:37.035Z,1.77
2022-11-23T05:13:03.791Z,1.60
2022-11-23T05:15:30.224Z,1.90
2022-11-23T05:18:06.884Z,2.17
2022-11-23T05:20:34.442Z,1.45
2022-11-23T05:23:00.840Z,1.88
2022-11-23T05:25:27.288Z,1.83
2022-11-23T05:27:53.706Z,1.80
2022-11-23T05:30:20.686Z,2.28
2022-11-23T05:32:47.181Z,2.05
2022-11-23T05:35:14.324Z,1.80
2022-11-23T05:37:41.349Z,1.52
2022-11-23T05:40:08.718Z,2.40
2022-11-23T05:42:35.540Z,1.77
2022-11-23T05:45:01.979Z,2.05
2022-11-23T05:47:28.354Z,1.73
2022-11-23T05:49:54.759Z,1.88
2022-11-23T05:52:21.130Z,1.77
2022-11-23T05:54:47.515Z,2.10
2022-11-23T05:57:15.819Z,1.90
2022-11-23T05:59:42.237Z,1.70
2022-11-23T06:02:08.678Z,1.70
2022-11-23T06:04:35.086Z,1.83
2022-11-23T06:07:01.476Z,1.70
2022-11-23T06:09:28.502Z,1.88
2022-11-23T06:11:55.078Z,1.80
2022-11-23T06:14:21.613Z,1.50
2022-11-23T06:16:47.992Z,2.15
2022-11-23T06:19:14.378Z,1.95
2022-11-23T06:21:40.752Z,1.63
2022-11-23T06:24:07.336Z,1.67
2022-11-23T06:26:33.821Z,1.90
2022-11-23T06:29:00.201Z,1.45
2022-11-23T06:31:26.571Z,1.60
2022-11-23T06:33:52.987Z,1.80
2022-11-23T06:36:19.685Z,1.77
2022-11-23T06:38:46.095Z,1.63
2022-11-23T06:41:12.498Z,2.35
2022-11-23T06:43:38.909Z,1.65
2022-11-23T06:46:08.648Z,1.83
2022-11-23T06:48:35.043Z,1.75
2022-11-23T06:51:01.582Z,1.70
2022-11-23T06:53:28.903Z,1.95
2022-11-23T06:56:00.000Z,2.00
2022-11-23T06:58:26.944Z,2.20
2022-11-23T07:00:53.361Z,2.00
2022-11-23T07:03:22.653Z,2.00
2022-11-23T07:05:49.104Z,1.70
2022-11-23T07:08:15.538Z,2.47
2022-11-23T07:10:41.989Z,2.10
2022-11-23T07:13:09.970Z,2.33
2022-11-23T07:15:37.338Z,2.40
2022-11-23T07:18:04.265Z,2.50
2022-11-23T07:20:30.790Z,2.42
2022-11-23T07:23:01.639Z,2.95
2022-11-23T07:25:32.818Z,2.72
2022-11-23T07:27:59.851Z,2.70
2022-11-23T07:30:29.492Z,2.83
2022-11-23T07:33:03.450Z,3.08
2022-11-23T07:35:30.236Z,2.92
2022-11-23T07:37:56.619Z,3.08
2022-11-23T07:40:23.121Z,3.10
2022-11-23T07:42:49.546Z,2.78
2022-11-23T07:45:15.950Z,3.03
2022-11-23T07:47:42.395Z,3.30
2022-11-23T07:50:10.577Z,2.90
2022-11-23T07:52:37.514Z,3.17
2022-11-23T07:55:04.440Z,3.05
2022-11-23T07:57:30.843Z,3.20
2022-11-23T07:59:57.337Z,2.50
2022-11-23T08:02:23.889Z,3.17
2022-11-23T08:04:50.466Z,2.92
2022-11-23T08:07:16.959Z,3.03
2022-11-23T08:09:43.419Z,2.88
2022-11-23T08:12:09.809Z,3.00
2022-11-23T08:14:36.410Z,2.78
2022-11-23T08:17:02.940Z,2.38
2022-11-23T08:19:29.339Z,2.45
2022-11-23T08:21:55.730Z,2.42
2022-11-23T08:24:22.516Z,2.55
2022-11-23T08:26:49.063Z,2.47
2022-11-23T08:29:15.534Z,2.95
2022-11-23T08:31:41.946Z,2.30
2022-11-23T08:34:08.319Z,2.50
2022-11-23T08:36:34.741Z,2.55
2022-11-23T08:39:01.210Z,2.40
2022-11-23T08:41:27.743Z,2.58
2022-11-23T08:43:54.190Z,2.47
2022-11-23T08:46:20.642Z,2.67
2022-11-23T08:48:47.144Z,2.60
2022-11-23T08:51:13.666Z,2.58
2022-11-23T08:53:40.157Z,2.60
2022-11-23T08:56:07.572Z,2.22
2022-11-23T08:58:34.250Z,2.10
2022-11-23T09:01:00.649Z,2.10
2022-11-23T09:03:27.032Z,2.17
2022-11-23T09:05:54.546Z,2.55
2022-11-23T09:08:20.936Z,2.50
2022-11-23T09:10:47.381Z,1.80
2022-11-23T09:13:13.834Z,1.80
2022-11-23T09:15:40.260Z,1.70
2022-11-23T09:18:06.775Z,1.90
2022-11-23T09:20:33.207Z,2.15
2022-11-23T09:22:59.576Z,1.70
2022-11-23T09:25:25.948Z,1.67
2022-11-23T09:27:59.576Z,1.70
2022-11-23T09:30:26.804Z,1.67
2022-11-23T09:32:55.749Z,2.05
2022-11-23T09:35:22.146Z,2.17
2022-11-23T09:37:48.520Z,1.67
2022-11-23T09:40:17.257Z,1.92
2022-11-23T09:42:54.276Z,1.98
2022-11-23T09:45:22.544Z,1.90
2022-11-23T09:48:02.107Z,1.70
2022-11-23T09:50:39.289Z,1.83
2022-11-23T09:53:09.721Z,2.13
2022-11-23T09:55:44.219Z,1.90
2022-11-23T09:58:15.976Z,1.98
2022-11-23T10:00:46.370Z,1.20
2022-11-23T10:03:17.684Z,1.73
2022-11-23T10:05:50.695Z,1.80
2022-11-23T10:08:26.783Z,1.80
2022-11-23T10:10:59.254Z,2.13
2022-11-23T10:13:37.786Z,1.80
2022-11-23T10:16:26.224Z,1.58
2022-11-23T10:19:04.018Z,1.70
2022-11-23T10:21:57.771Z,2.10
2022-11-23T10:24:37.254Z,1.98
2022-11-23T10:27:03.986Z,1.95
2022-11-23T10:29:32.714Z,1.42
2022-11-23T10:31:59.668Z,1.80
2022-11-23T10:34:44.962Z,1.70
2022-11-23T10:37:12.834Z,1.60
2022-11-23T10:39:39.298Z,1.60
2022-11-23T10:42:18.592Z,1.73
2022-11-23T10:44:47.047Z,1.70
2022-11-23T10:47:34.077Z,1.50
2022-11-23T10:50:00.751Z,1.30
2022-11-23T10:52:29.796Z,1.70
2022-11-23T10:54:58.961Z,1.55
2022-11-23T10:57:28.237Z,1.70
2022-11-23T11:00:01.045Z,1.90
2022-11-23T11:02:28.148Z,1.70
2022-11-23T11:05:53.121Z,1.88
2022-11-23T11:08:20.548Z,1.50
2022-11-23T11:10:52.051Z,1.67
2022-11-23T11:13:25.352Z,1.70
2022-11-23T11:16:02.824Z,1.63
2022-11-23T11:18:33.675Z,1.38
2022-11-23T11:21:06.541Z,1.40
2022-11-23T11:23:34.690Z,1.70
2022-11-23T11:26:13.657Z,2.13
2022-11-23T11:28:44.109Z,1.50
2022-11-23T11:31:45.734Z,1.48
2022-11-23T11:34:35.652Z,1.60
2022-11-23T11:37:30.797Z,1.70
2022-11-23T11:40:17.570Z,1.60
2022-11-23T11:42:48.362Z,1.88
2022-11-23T11:45:26.947Z,1.48
2022-11-23T11:47:57.889Z,1.88
2022-11-23T11:50:32.111Z,1.77
2022-11-23T11:53:10.664Z,2.53
2022-11-23T11:55:54.966Z,2.13
2022-11-23T11:58:24.693Z,1.30
2022-11-23T12:01:07.038Z,1.40
2022-11-23T12:03:39.716Z,1.40
2022-11-23T12:06:13.093Z,1.67
2022-11-23T12:09:10.281Z,1.25
2022-11-23T12:11:37.309Z,1.70
2022-11-23T12:14:04.874Z,1.60
2022-11-23T12:16:39.067Z,1.50
2022-11-23T12:19:10.320Z,1.88
2022-11-23T12:21:56.158Z,1.90
2022-11-23T12:24:59.613Z,2.08
2022-11-23T12:27:36.632Z,1.77
2022-11-23T12:30:26.693Z,2.05
2022-11-23T12:33:07.742Z,1.80
2022-11-23T12:35:39.970Z,1.77
2022-11-23T12:38:21.592Z,1.70
2022-11-23T12:41:10.143Z,1.63
2022-11-23T12:43:58.005Z,1.73
2022-11-23T12:46:45.597Z,1.70
2022-11-23T12:49:39.330Z,1.23
2022-11-23T12:52:33.838Z,1.60
2022-11-23T12:55:20.155Z,1.50
2022-11-23T12:58:00.828Z,2.00
2022-11-23T13:00:31.964Z,1.60
2022-11-23T13:02:58.340Z,1.40
2022-11-23T13:05:30.803Z,1.40
2022-11-23T13:08:09.432Z,1.50
2022-11-23T13:10:50.485Z,1.70
2022-11-23T13:13:35.781Z,1.60
2022-11-23T13:16:20.685Z,1.42
2022-11-23T13:19:06.943Z,1.73
2022-11-23T13:21:38.940Z,2.35
2022-11-23T13:24:24.078Z,1.98
2022-11-23T13:27:15.283Z,1.60
2022-11-23T13:29:50.752Z,1.67
2022-11-23T13:32:38.849Z,1.92
2022-11-23T13:35:23.287Z,1.98
2022-11-23T13:38:00.212Z,1.80
2022-11-23T13:40:29.313Z,1.60
2022-11-23T13:43:01.684Z,2.13
2022-11-23T13:45:30.962Z,1.60
2022-11-23T13:48:34.390Z,1.90
2022-11-23T13:51:00.910Z,1.93
2022-11-23T13:53:31.920Z,1.95
2022-11-23T13:56:15.537Z,1.73
2022-11-23T13:58:53.761Z,1.98
2022-11-23T14:01:57.314Z,2.15
2022-11-23T14:04:25.094Z,2.38
2022-11-23T14:06:57.220Z,2.17
2022-11-23T14:09:32.778Z,1.90
2022-11-23T14:12:12.772Z,2.67
2022-11-23T14:14:47.536Z,2.28
2022-11-23T14:17:51.832Z,2.40
2022-11-23T14:20:46.383Z,2.35
2022-11-23T14:23:31.832Z,2.10
2022-11-23T14:26:04.188Z,2.20
2022-11-23T14:28:44.711Z,2.10
2022-11-23T14:31:32.148Z,2.15
2022-11-23T14:34:14.540Z,1.95
2022-11-23T14:36:49.539Z,2.47
2022-11-23T14:39:40.461Z,2.33
2022-11-23T14:42:22.486Z,2.50
2022-11-23T14:44:49.105Z,1.92
2022-11-23T14:47:25.278Z,2.30
2022-11-23T14:49:51.996Z,2.55
2022-11-23T14:52:23.671Z,2.10
2022-11-23T14:54:51.193Z,1.57
2022-11-23T14:57:19.876Z,1.70
2022-11-23T14:59:52.846Z,2.17
2022-11-23T15:02:25.566Z,2.50
2022-11-23T15:04:53.735Z,2.33
2022-11-23T15:07:23.908Z,2.53
2022-11-23T15:10:05.460Z,2.35
2022-11-23T15:12:43.475Z,3.15
2022-11-23T15:15:27.153Z,2.10
2022-11-23T15:17:57.253Z,2.40
2022-11-23T15:20:27.592Z,2.50
2022-11-23T15:22:53.983Z,1.80
2022-11-23T15:25:20.339Z,2.30
2022-11-23T15:27:49.105Z,2.17
2022-11-23T15:30:19.474Z,2.20
2022-11-23T15:32:58.212Z,2.22
2022-11-23T15:35:30.737Z,2.50
2022-11-23T15:37:57.328Z,2.95
2022-11-23T15:40:28.150Z,2.30
2022-11-23T15:42:54.648Z,2.42
2022-11-23T15:45:34.529Z,2.70
2022-11-23T15:48:03.306Z,2.70
2022-11-23T15:50:33.761Z,2.95
2022-11-23T15:53:00.714Z,2.60
2022-11-23T15:55:29.516Z,3.13
2022-11-23T15:57:56.793Z,2.90
2022-11-23T16:00:27.607Z,2.65
2022-11-23T16:03:33.146Z,2.63
2022-11-23T16:06:11.690Z,2.63
2022-11-23T16:08:40.661Z,2.63
2022-11-23T16:11:35.532Z,2.40
2022-11-23T16:14:19.150Z,2.45
2022-11-23T16:16:47.527Z,2.70
2022-11-23T16:19:26.834Z,2.53
2022-11-23T16:22:01.743Z,3.20
2022-11-23T16:24:29.263Z,2.80
2022-11-23T16:26:55.672Z,2.83
2022-11-23T16:29:40.363Z,3.00
2022-11-23T16:32:21.872Z,2.83
2022-11-23T16:34:48.271Z,2.95
2022-11-23T16:37:14.800Z,2.88
2022-11-23T16:39:41.192Z,3.30
2022-11-23T16:42:14.580Z,2.60
2022-11-23T16:44:42.078Z,2.88
2022-11-23T16:47:27.126Z,2.80
2022-11-23T16:49:54.237Z,2.70
2022-11-23T16:52:22.611Z,3.42
2022-11-23T16:54:49.576Z,3.00
2022-11-23T16:57:22.344Z,3.10
2022-11-23T16:59:48.726Z,3.28
2022-11-23T17:02:15.852Z,2.75
2022-11-23T17:04:43.202Z,2.63
2022-11-23T17:07:10.178Z,2.70
2022-11-23T17:09:36.708Z,2.80
2022-11-23T17:12:05.560Z,2.90
2022-11-23T17:14:36.083Z,2.65
2022-11-23T17:17:03.762Z,2.53
2022-11-23T17:19:30.826Z,2.60
2022-11-23T17:21:57.738Z,2.83
2022-11-23T17:24:24.105Z,2.72
2022-11-23T17:26:53.004Z,2.50
2022-11-23T17:29:20.312Z,2.70
2022-11-23T17:31:47.526Z,2.50
2022-11-23T17:34:14.379Z,2.55
2022-11-23T17:36:41.927Z,2.63
2022-11-23T17:39:15.380Z,2.60
2022-11-23T17:41:41.819Z,2.63
2022-11-23T17:44:09.479Z,2.75
2022-11-23T17:46:35.958Z,2.95
2022-11-23T17:49:02.594Z,2.47
2022-11-23T17:51:29.326Z,2.63
2022-11-23T17:53:55.864Z,2.35
2022-11-23T17:56:23.807Z,2.03
2022-11-23T17:58:52.278Z,2.67
2022-11-23T18:01:19.914Z,2.50
2022-11-23T18:03:46.785Z,2.60
2022-11-23T18:06:15.243Z,2.20
2022-11-23T18:08:43.293Z,2.17
2022-11-23T18:11:10.073Z,2.60
2022-11-23T18:13:37.067Z,2.63
2022-11-23T18:16:04.194Z,2.65
2022-11-23T18:18:30.956Z,2.30
2022-11-23T18:20:58.685Z,2.47
2022-11-23T18:23:25.666Z,2.95
2022-11-23T18:26:03.213Z,2.28
2022-11-23T18:28:30.053Z,2.55
2022-11-23T18:30:56.939Z,2.70
2022-11-23T18:33:24.254Z,2.40
2022-11-23T18:35:50.714Z,2.85
2022-11-23T18:38:17.107Z,2.22
2022-11-23T18:40:43.655Z,2.55
2022-11-23T18:43:10.078Z,2.42
2022-11-23T18:45:36.513Z,2.35
2022-11-23T18:48:03.258Z,2.83
2022-11-23T18:50:29.663Z,2.33
2022-11-23T18:52:56.204Z,2.03
2022-11-23T18:55:22.658Z,2.47
2022-11-23T18:57:49.046Z,2.50
2022-11-23T19:00:16.428Z,2.50
2022-11-23T19:02:42.862Z,2.80
2022-11-23T19:05:09.361Z,3.00
2022-11-23T19:07:35.863Z,2.50
2022-11-23T19:10:02.299Z,2.00
2022-11-23T19:12:30.297Z,2.10
2022-11-23T19:14:56.686Z,1.83
2022-11-23T19:17:23.196Z,2.10
2022-11-23T19:19:49.556Z,2.00
2022-11-23T19:22:16.022Z,2.10
2022-11-23T19:24:42.438Z,2.20
2022-11-23T19:27:08.879Z,2.50
2022-11-23T19:29:35.557Z,2.60
2022-11-23T19:32:02.191Z,2.30
2022-11-23T19:34:28.831Z,2.67
2022-11-23T19:36:55.213Z,2.70
2022-11-23T19:39:21.604Z,2.83
2022-11-23T19:41:48.226Z,2.50
2022-11-23T19:44:14.794Z,2.70
2022-11-23T19:46:41.277Z,2.25
2022-11-23T19:49:08.618Z,2.85
2022-11-23T19:51:35.215Z,2.20
2022-11-23T19:54:02.082Z,2.80
2022-11-23T19:56:29.427Z,2.75
2022-11-23T19:58:57.940Z,2.20
2022-11-23T20:01:26.021Z,2.78
2022-11-23T20:03:54.903Z,2.30
2022-11-23T20:06:26.126Z,3.05
2022-11-23T20:09:00.639Z,2.80
2022-11-23T20:11:29.345Z,2.70
2022-11-23T20:13:56.030Z,3.35
2022-11-23T20:16:23.257Z,2.50
2022-11-23T20:18:56.970Z,3.08
2022-11-23T20:21:23.357Z,3.22
2022-11-23T20:23:58.646Z,2.70
2022-11-23T20:26:28.232Z,2.60
2022-11-23T20:28:55.951Z,2.95
2022-11-23T20:31:24.927Z,2.60
2022-11-23T20:33:52.097Z,2.42
2022-11-23T20:36:20.900Z,2.85
2022-11-23T20:38:47.877Z,2.97
2022-11-23T20:41:24.277Z,2.80
2022-11-23T20:43:56.632Z,2.70
2022-11-23T20:46:45.655Z,2.50
2022-11-23T20:49:10.331Z,2.42
2022-11-23T20:51:36.800Z,2.97
2022-11-23T20:54:03.278Z,2.08
2022-11-23T20:56:30.166Z,2.35
2022-11-23T20:58:59.656Z,2.33
2022-11-23T21:01:27.752Z,2.40
2022-11-23T21:03:56.252Z,2.58
2022-11-23T21:06:22.944Z,2.30
2022-11-23T21:08:50.302Z,2.22
2022-11-23T21:11:46.181Z,2.80
2022-11-23T21:14:17.521Z,2.35
2022-11-23T21:16:52.635Z,2.47
2022-11-23T21:19:20.978Z,2.13
2022-11-23T21:21:47.454Z,2.85
2022-11-23T21:24:13.828Z,2.22
2022-11-23T21:26:40.216Z,2.22
2022-11-23T21:29:11.179Z,2.63
2022-11-23T21:31:39.077Z,3.03
2022-11-23T21:34:05.565Z,2.45
2022-11-23T21:36:36.065Z,2.45
2022-11-23T21:39:04.626Z,2.90
2022-11-23T21:41:31.097Z,2.80
2022-11-23T21:43:57.666Z,2.75
2022-11-23T21:46:24.527Z,2.58
2022-11-23T21:48:55.928Z,3.00
2022-11-23T21:51:26.569Z,2.70
2022-11-23T21:53:57.013Z,2.30
2022-11-23T21:56:23.727Z,2.20
2022-11-23T21:58:50.300Z,2.08
2022-11-23T22:01:24.831Z,2.72
2022-11-23T22:03:56.281Z,3.10
2022-11-23T22:06:22.958Z,2.28
2022-11-23T22:08:53.889Z,2.70
2022-11-23T22:11:24.060Z,2.45
2022-11-23T22:13:55.288Z,2.17
2022-11-23T22:16:29.948Z,2.08
2022-11-23T22:18:56.855Z,2.70
2022-11-23T22:21:26.670Z,2.55
2022-11-23T22:23:53.520Z,2.28
2022-11-23T22:26:20.894Z,2.38
2022-11-23T22:28:49.426Z,2.20
2022-11-23T22:31:18.195Z,2.40
2022-11-23T22:33:44.870Z,2.40
2022-11-23T22:36:14.476Z,2.30
2022-11-23T22:38:40.993Z,1.90
2022-11-23T22:41:09.902Z,2.42
2022-11-23T22:43:36.686Z,2.30
2022-11-23T22:46:15.285Z,2.30
2022-11-23T22:48:43.535Z,2.58
2022-11-23T22:51:12.251Z,2.20
2022-11-23T22:53:44.541Z,1.95
2022-11-23T22:56:16.919Z,2.10
2022-11-23T22:58:44.539Z,2.15
2022-11-23T23:01:19.464Z,2.17
2022-11-23T23:03:46.407Z,2.55
2022-11-23T23:06:16.461Z,2.50
2022-11-23T23:08:42.980Z,2.90
2022-11-23T23:11:09.763Z,2.55
2022-11-23T23:13:36.147Z,2.70
2022-11-23T23:16:05.068Z,2.40
2022-11-23T23:18:31.979Z,2.60
2022-11-23T23:21:10.564Z,2.50
2022-11-23T23:23:38.100Z,2.50
2022-11-23T23:26:05.309Z,2.92
2022-11-23T23:28:31.792Z,3.15
2022-11-23T23:31:02.585Z,2.70
2022-11-23T23:33:29.678Z,2.85
2022-11-23T23:35:56.685Z,2.83
2022-11-23T23:38:27.443Z,3.05
2022-11-23T23:40:55.488Z,2.85
2022-11-23T23:43:22.616Z,2.67
2022-11-23T23:45:50.125Z,3.60
2022-11-23T23:48:16.684Z,3.20
2022-11-23T23:50:43.320Z,2.72
2022-11-23T23:53:09.795Z,2.58
2022-11-23T23:55:36.322Z,3.08
2022-11-23T23:58:03.269Z,3.13
